createdAt,value
2019-03-16T00:01:40.438Z,10.00
2019-03-16T00:04:29.899Z,9.97
2019-03-16T00:07:32.207Z,9.98
2019-03-16T00:09:54.974Z,10.02
2019-03-16T00:12:44.598Z,9.98
2019-03-16T00:15:33.799Z,10.02
2019-03-16T00:18:15.538Z,10.06
2019-03-16T00:20:56.095Z,9.90
2019-03-16T00:23:45.318Z,9.98
2019-03-16T00:26:34.749Z,9.92
2019-03-16T00:29:24.293Z,10.04
2019-03-16T00:32:13.935Z,9.91
2019-03-16T00:35:03.461Z,10.00
2019-03-16T00:37:53.518Z,9.93
2019-03-16T00:40:42.972Z,9.97
2019-03-16T00:43:32.258Z,9.93
2019-03-16T00:46:02.439Z,9.91
2019-03-16T00:48:51.880Z,10.00
2019-03-16T00:51:41.103Z,10.10
2019-03-16T00:54:30.551Z,10.04
2019-03-16T00:57:19.894Z,10.13
2019-03-16T01:00:08.497Z,10.11
2019-03-16T01:03:16.623Z,10.06
2019-03-16T01:06:05.854Z,10.08
2019-03-16T01:08:55.530Z,10.12
2019-03-16T01:11:44.943Z,10.05
2019-03-16T01:14:34.166Z,10.06
2019-03-16T01:17:23.514Z,10.28
2019-03-16T01:20:05.754Z,10.31
2019-03-16T01:22:47.702Z,10.39
2019-03-16T01:25:30.517Z,10.39
2019-03-16T01:28:11.689Z,10.46
2019-03-16T01:33:40.201Z,10.54
2019-03-16T01:36:21.870Z,10.50
2019-03-16T01:39:04.113Z,10.53
2019-03-16T01:41:46.144Z,10.56
2019-03-16T01:44:28.186Z,10.50
2019-03-16T01:47:08.344Z,10.52
2019-03-16T01:49:57.508Z,10.49
2019-03-16T01:52:46.963Z,10.47
2019-03-16T01:55:36.188Z,10.37
2019-03-16T01:58:25.614Z,10.43
2019-03-16T02:00:55.786Z,10.44
2019-03-16T02:03:26.143Z,10.47
2019-03-16T02:06:15.607Z,10.47
2019-03-16T02:08:45.691Z,9.67
2019-03-16T02:11:34.905Z,10.56
2019-03-16T02:14:19.400Z,10.53
2019-03-16T02:17:01.986Z,10.56
2019-03-16T02:19:42.289Z,10.60
2019-03-16T02:22:31.968Z,10.73
2019-03-16T02:25:21.367Z,10.76
2019-03-16T02:28:10.853Z,10.76
2019-03-16T02:31:00.027Z,10.77
2019-03-16T02:33:49.517Z,10.74
2019-03-16T02:40:08.478Z,10.67
2019-03-16T02:42:57.951Z,10.69
2019-03-16T02:48:43.250Z,10.82
2019-03-16T02:51:32.483Z,10.85
2019-03-16T02:54:02.634Z,10.87
2019-03-16T02:56:52.221Z,10.99
2019-03-16T02:59:41.670Z,10.16
2019-03-16T03:02:30.838Z,10.96
2019-03-16T03:05:20.159Z,11.00
2019-03-16T03:08:09.345Z,10.97
2019-03-16T03:10:58.754Z,10.96
2019-03-16T03:13:47.939Z,10.91
2019-03-16T03:16:18.101Z,10.33
2019-03-16T03:19:07.478Z,10.96
2019-03-16T03:21:49.032Z,10.98
2019-03-16T03:24:31.196Z,10.98
2019-03-16T03:27:11.329Z,10.77
2019-03-16T03:30:00.583Z,10.93
2019-03-16T03:32:49.766Z,10.91
2019-03-16T03:35:39.231Z,10.94
2019-03-16T03:38:28.704Z,10.06
2019-03-16T03:41:17.868Z,10.84
2019-03-16T03:44:07.657Z,10.77
2019-03-16T03:46:37.765Z,10.77
2019-03-16T03:49:27.220Z,10.77
2019-03-16T03:52:16.473Z,10.02
2019-03-16T03:58:01.457Z,10.78
2019-03-16T04:00:43.155Z,10.77
2019-03-16T04:03:24.894Z,10.84
2019-03-16T04:06:06.490Z,10.73
2019-03-16T04:08:48.033Z,10.72
2019-03-16T04:11:29.907Z,10.65
2019-03-16T04:14:11.685Z,10.65
2019-03-16T04:16:42.100Z,10.63
2019-03-16T04:19:12.432Z,10.64
2019-03-16T04:22:02.157Z,10.63
2019-03-16T04:24:32.343Z,10.64
2019-03-16T04:27:21.853Z,10.59
2019-03-16T04:30:11.147Z,10.57
2019-03-16T04:33:00.568Z,10.52
2019-03-16T04:35:49.742Z,10.52
2019-03-16T04:38:39.198Z,10.56
2019-03-16T04:41:28.438Z,10.52
2019-03-16T04:44:17.904Z,10.50
2019-03-16T04:46:48.100Z,10.52
2019-03-16T04:49:37.525Z,10.54
2019-03-16T04:52:26.937Z,10.50
2019-03-16T04:55:16.133Z,10.50
2019-03-16T04:58:05.580Z,10.48
2019-03-16T05:00:54.809Z,10.03
2019-03-16T05:03:44.277Z,10.53
2019-03-16T05:06:33.463Z,10.52
2019-03-16T05:09:23.549Z,10.50
2019-03-16T05:12:13.498Z,10.50
2019-03-16T05:15:03.932Z,10.55
2019-03-16T05:17:34.105Z,10.51
2019-03-16T05:20:04.452Z,10.50
2019-03-16T05:22:34.965Z,10.52
2019-03-16T05:25:05.551Z,10.57
2019-03-16T05:27:35.652Z,10.58
2019-03-16T05:30:06.285Z,10.55
2019-03-16T05:32:55.721Z,10.58
2019-03-16T05:35:44.914Z,10.55
2019-03-16T05:38:34.301Z,10.53
2019-03-16T05:41:04.587Z,10.50
2019-03-16T05:43:54.051Z,10.50
2019-03-16T05:46:43.469Z,10.45
2019-03-16T05:49:13.612Z,10.48
2019-03-16T05:51:43.827Z,10.47
2019-03-16T05:54:14.035Z,10.24
2019-03-16T05:56:44.535Z,10.48
2019-03-16T05:59:37.026Z,10.47
2019-03-16T06:02:26.473Z,10.46
2019-03-16T06:05:15.888Z,10.40
2019-03-16T06:07:46.158Z,10.49
2019-03-16T06:10:16.291Z,10.42
2019-03-16T06:12:46.980Z,10.43
2019-03-16T06:15:36.157Z,10.41
2019-03-16T06:18:25.372Z,10.41
2019-03-16T06:20:55.579Z,10.40
2019-03-16T06:23:25.841Z,10.43
2019-03-16T06:25:57.268Z,10.47
2019-03-16T06:28:27.634Z,10.42
2019-03-16T06:30:57.867Z,10.48
2019-03-16T06:33:28.129Z,10.54
2019-03-16T06:35:58.302Z,10.54
2019-03-16T06:38:28.411Z,10.62
2019-03-16T06:41:17.614Z,10.63
2019-03-16T06:44:06.833Z,10.54
2019-03-16T06:46:57.251Z,10.59
2019-03-16T06:49:47.057Z,10.58
2019-03-16T06:52:36.461Z,10.67
2019-03-16T06:55:25.993Z,10.72
2019-03-16T06:58:15.197Z,10.75
2019-03-16T07:01:04.717Z,10.80
2019-03-16T07:03:54.103Z,10.77
2019-03-16T07:06:43.886Z,10.78
2019-03-16T07:09:33.396Z,10.79
2019-03-16T07:12:22.797Z,10.84
2019-03-16T07:14:52.912Z,10.77
2019-03-16T07:17:23.660Z,10.78
2019-03-16T07:19:53.788Z,10.81
2019-03-16T07:22:43.130Z,10.84
2019-03-16T07:25:14.043Z,10.86
2019-03-16T07:28:03.214Z,10.85
2019-03-16T07:30:52.481Z,10.84
2019-03-16T07:33:41.981Z,10.80
2019-03-16T07:36:12.079Z,10.75
2019-03-16T07:38:42.329Z,10.75
2019-03-16T07:41:12.640Z,10.76
2019-03-16T07:44:02.088Z,10.82
2019-03-16T07:46:32.279Z,10.82
2019-03-16T07:49:02.469Z,10.86
2019-03-16T07:51:51.634Z,10.96
2019-03-16T07:54:40.772Z,10.98
2019-03-16T07:57:40.015Z,11.00
2019-03-16T08:00:21.063Z,11.00
2019-03-16T08:02:51.294Z,11.01
2019-03-16T08:05:40.426Z,11.03
2019-03-16T08:08:10.829Z,11.09
2019-03-16T08:10:40.969Z,11.05
2019-03-16T08:13:30.399Z,11.00
2019-03-16T08:16:00.493Z,11.01
2019-03-16T08:21:39.176Z,10.98
2019-03-16T08:24:09.904Z,10.96
2019-03-16T08:26:59.338Z,10.99
2019-03-16T08:29:51.105Z,11.04
2019-03-16T08:32:40.922Z,11.04
2019-03-16T08:35:32.994Z,11.07
2019-03-16T08:38:21.700Z,10.56
2019-03-16T08:47:27.926Z,11.13
2019-03-16T08:50:18.917Z,11.29
2019-03-16T08:52:50.058Z,10.58
2019-03-16T08:55:23.319Z,11.38
2019-03-16T08:58:05.693Z,11.36
2019-03-16T09:00:48.346Z,11.27
2019-03-16T09:03:21.436Z,11.18
2019-03-16T09:06:11.379Z,11.14
2019-03-16T09:08:42.234Z,11.13
2019-03-16T09:11:32.727Z,11.11
2019-03-16T09:14:24.415Z,11.06
2019-03-16T09:17:14.545Z,11.13
2019-03-16T09:19:46.365Z,11.11
2019-03-16T09:22:37.934Z,11.20
2019-03-16T09:25:10.337Z,11.18
2019-03-16T09:28:00.090Z,11.20
2019-03-16T09:30:50.770Z,11.28
2019-03-16T09:33:22.226Z,11.32
2019-03-16T09:36:12.963Z,11.34
2019-03-16T09:39:02.757Z,11.25
2019-03-16T09:41:52.402Z,11.15
2019-03-16T09:44:33.153Z,11.16
2019-03-16T09:47:16.277Z,11.07
2019-03-16T09:52:41.574Z,10.91
2019-03-16T09:55:23.454Z,10.85
2019-03-16T09:57:58.769Z,10.77
2019-03-16T10:00:48.983Z,10.65
2019-03-16T10:03:38.720Z,10.67
2019-03-16T10:06:30.332Z,10.68
2019-03-16T10:09:19.979Z,10.66
2019-03-16T10:12:09.728Z,10.73
2019-03-16T10:14:59.372Z,10.76
2019-03-16T10:17:49.137Z,10.84
2019-03-16T10:20:38.947Z,10.85
2019-03-16T10:23:29.244Z,10.93
2019-03-16T10:26:18.964Z,10.96
2019-03-16T10:29:08.598Z,11.00
2019-03-16T10:31:50.447Z,11.07
2019-03-16T10:34:30.628Z,11.01
2019-03-16T10:37:20.245Z,11.05
2019-03-16T10:39:53.420Z,11.13
2019-03-16T10:42:42.985Z,11.21
2019-03-16T10:45:32.562Z,11.28
2019-03-16T10:48:22.390Z,11.28
2019-03-16T10:51:11.952Z,11.30
2019-03-16T10:54:01.734Z,11.68
2019-03-16T10:56:51.334Z,11.64
2019-03-16T10:59:41.335Z,11.69
2019-03-16T11:02:31.940Z,11.81
2019-03-16T11:05:02.708Z,11.89
2019-03-16T11:07:52.320Z,12.21
2019-03-16T11:10:42.025Z,12.45
2019-03-16T11:13:31.670Z,12.78
2019-03-16T11:16:22.147Z,12.60
2019-03-16T11:19:11.883Z,12.51
2019-03-16T11:22:01.557Z,12.56
2019-03-16T11:24:33.996Z,12.85
2019-03-16T11:27:23.821Z,12.75
2019-03-16T11:30:13.705Z,12.64
2019-03-16T11:32:44.498Z,12.80
2019-03-16T11:35:34.229Z,12.94
2019-03-16T11:38:09.316Z,12.47
2019-03-16T11:41:00.193Z,13.35
2019-03-16T11:43:30.962Z,13.18
2019-03-16T11:46:20.906Z,12.97
2019-03-16T11:49:07.026Z,12.89
2019-03-16T11:51:45.327Z,12.97
2019-03-16T11:54:35.053Z,13.04
2019-03-16T11:57:05.925Z,13.25
2019-03-16T11:59:55.508Z,13.45
2019-03-16T12:02:45.691Z,13.71
2019-03-16T12:05:17.037Z,13.84
2019-03-16T12:08:06.667Z,13.90
2019-03-16T12:10:37.549Z,13.67
2019-03-16T12:13:17.094Z,13.88
2019-03-16T12:15:41.651Z,13.73
2019-03-16T12:18:12.446Z,13.69
2019-03-16T12:20:45.287Z,13.67
2019-03-16T12:23:34.725Z,13.70
2019-03-16T12:26:05.655Z,14.01
2019-03-16T12:28:36.952Z,14.28
2019-03-16T12:31:26.497Z,14.57
2019-03-16T12:33:57.461Z,14.32
2019-03-16T12:36:28.389Z,13.86
2019-03-16T12:39:35.473Z,13.74
2019-03-16T12:42:10.400Z,13.64
2019-03-16T12:44:41.866Z,13.82
2019-03-16T12:47:17.599Z,13.81
2019-03-16T12:50:07.295Z,13.70
2019-03-16T12:52:38.345Z,13.47
2019-03-16T12:55:28.208Z,13.18
2019-03-16T12:57:58.906Z,13.21
2019-03-16T13:00:29.596Z,13.39
2019-03-16T13:03:00.706Z,13.47
2019-03-16T13:05:31.633Z,13.43
2019-03-16T13:08:04.326Z,13.44
2019-03-16T13:10:36.757Z,13.61
2019-03-16T13:13:10.572Z,13.64
2019-03-16T13:16:04.227Z,13.75
2019-03-16T13:18:57.163Z,14.14
2019-03-16T13:21:47.499Z,14.37
2019-03-16T13:24:40.267Z,15.36
2019-03-16T13:27:11.298Z,16.20
2019-03-16T13:29:42.346Z,16.00
2019-03-16T13:32:14.252Z,15.48
2019-03-16T13:34:45.574Z,15.34
2019-03-16T13:37:35.587Z,15.82
2019-03-16T13:40:06.973Z,17.09
2019-03-16T13:42:37.748Z,16.62
2019-03-16T13:45:29.673Z,16.29
2019-03-16T13:48:01.616Z,14.92
2019-03-16T13:50:32.436Z,14.23
2019-03-16T13:53:22.472Z,14.41
2019-03-16T13:56:04.890Z,13.89
2019-03-16T13:58:35.886Z,13.70
2019-03-16T14:01:06.597Z,14.08
2019-03-16T14:03:37.857Z,14.41
2019-03-16T14:06:09.462Z,14.61
2019-03-16T14:08:40.273Z,14.68
2019-03-16T14:11:30.228Z,14.92
2019-03-16T14:14:19.835Z,15.11
2019-03-16T14:16:50.822Z,16.28
2019-03-16T14:19:40.614Z,17.18
2019-03-16T14:22:30.857Z,18.28
2019-03-16T14:25:02.868Z,19.30
2019-03-16T14:27:34.967Z,18.71
2019-03-16T14:30:08.198Z,17.70
2019-03-16T14:32:50.412Z,17.07
2019-03-16T14:38:20.379Z,15.42
2019-03-16T14:40:51.673Z,15.57
2019-03-16T14:46:31.590Z,15.55
2019-03-16T14:49:16.288Z,15.19
2019-03-16T14:52:24.789Z,14.86
2019-03-16T14:54:55.767Z,15.72
2019-03-16T14:57:58.991Z,15.21
2019-03-16T15:00:38.518Z,15.25
2019-03-16T15:03:23.227Z,14.81
2019-03-16T15:06:13.092Z,15.10
2019-03-16T15:08:44.043Z,14.84
2019-03-16T15:11:34.019Z,15.17
2019-03-16T15:14:05.124Z,15.24
2019-03-16T15:16:55.072Z,15.90
2019-03-16T15:19:27.353Z,16.40
2019-03-16T15:22:19.604Z,16.46
2019-03-16T15:25:11.390Z,16.52
2019-03-16T15:27:42.545Z,16.54
2019-03-16T15:30:14.741Z,15.23
2019-03-16T15:32:49.318Z,14.94
2019-03-16T15:35:20.873Z,15.23
2019-03-16T15:38:10.835Z,15.33
2019-03-16T15:40:42.086Z,14.86
2019-03-16T15:43:13.383Z,14.07
2019-03-16T15:46:19.502Z,13.94
2019-03-16T15:48:38.206Z,13.29
2019-03-16T15:51:28.012Z,14.09
2019-03-16T15:54:04.711Z,14.22
2019-03-16T16:00:00.451Z,14.68
2019-03-16T16:05:47.049Z,14.40
2019-03-16T16:08:23.750Z,14.19
2019-03-16T16:13:39.227Z,13.98
2019-03-16T16:16:28.862Z,14.15
2019-03-16T16:19:21.716Z,14.48
2019-03-16T16:22:11.676Z,14.16
2019-03-16T16:24:42.862Z,12.92
2019-03-16T16:27:13.835Z,13.54
2019-03-16T16:30:03.718Z,13.44
2019-03-16T16:32:45.655Z,13.28
2019-03-16T16:35:18.014Z,13.15
2019-03-16T16:37:49.588Z,13.04
2019-03-16T16:40:20.733Z,12.90
2019-03-16T16:42:51.867Z,12.80
2019-03-16T16:45:24.423Z,12.67
2019-03-16T16:48:15.328Z,12.63
2019-03-16T16:50:46.094Z,12.65
2019-03-16T16:53:36.404Z,12.54
2019-03-16T16:56:26.083Z,12.32
2019-03-16T16:58:57.313Z,12.09
2019-03-16T17:01:29.804Z,12.01
2019-03-16T17:04:00.504Z,11.97
2019-03-16T17:06:50.626Z,12.00
2019-03-16T17:09:21.558Z,11.90
2019-03-16T17:11:52.707Z,11.53
2019-03-16T17:14:46.871Z,11.39
2019-03-16T17:17:36.663Z,11.36
2019-03-16T17:20:08.089Z,11.44
2019-03-16T17:23:01.785Z,11.40
2019-03-16T17:28:39.254Z,11.12
2019-03-16T17:31:41.630Z,11.04
2019-03-16T17:34:25.678Z,11.01
2019-03-16T17:36:57.855Z,11.11
2019-03-16T17:39:47.423Z,10.87
2019-03-16T17:42:43.527Z,10.76
2019-03-16T17:45:20.285Z,10.64
2019-03-16T17:48:08.647Z,10.46
2019-03-16T17:51:03.065Z,10.39
2019-03-16T17:53:46.913Z,10.42
2019-03-16T17:59:16.254Z,10.24
2019-03-16T18:01:58.146Z,10.16
2019-03-16T18:04:49.005Z,9.97
2019-03-16T18:07:23.515Z,9.66
2019-03-16T18:09:57.670Z,9.77
2019-03-16T18:12:31.164Z,9.78
2019-03-16T18:15:03.604Z,9.71
2019-03-16T18:17:38.658Z,9.59
2019-03-16T18:20:13.107Z,9.69
2019-03-16T18:23:05.335Z,9.73
2019-03-16T18:25:37.895Z,9.68
2019-03-16T18:31:44.007Z,10.22
2019-03-16T18:34:23.748Z,9.99
2019-03-16T18:40:09.857Z,10.03
2019-03-16T18:42:41.361Z,9.65
2019-03-16T18:45:31.293Z,9.40
2019-03-16T18:48:03.677Z,8.63
2019-03-16T18:50:34.512Z,9.21
2019-03-16T18:53:24.255Z,9.24
2019-03-16T18:56:13.978Z,9.14
2019-03-16T18:59:03.657Z,8.02
2019-03-16T19:01:53.378Z,8.69
2019-03-16T19:04:24.091Z,8.63
2019-03-16T19:06:55.349Z,8.51
2019-03-16T19:09:27.080Z,8.44
2019-03-16T19:11:57.809Z,8.32
2019-03-16T19:14:28.591Z,8.47
2019-03-16T19:17:18.382Z,8.43
2019-03-16T19:20:11.478Z,8.34
2019-03-16T19:22:52.426Z,8.25
2019-03-16T19:25:23.544Z,8.37
2019-03-16T19:27:54.523Z,9.12
2019-03-16T19:33:16.244Z,9.56
2019-03-16T19:35:46.876Z,9.75
2019-03-16T19:38:36.534Z,10.05
2019-03-16T19:41:27.440Z,10.29
2019-03-16T19:43:59.740Z,10.23
2019-03-16T19:46:30.909Z,10.25
2019-03-16T19:49:20.601Z,10.34
2019-03-16T19:51:51.282Z,10.42
2019-03-16T19:54:22.305Z,10.45
2019-03-16T19:56:53.404Z,10.50
2019-03-16T19:59:24.228Z,10.41
2019-03-16T20:02:17.131Z,10.47
2019-03-16T20:04:48.790Z,10.34
2019-03-16T20:07:21.802Z,10.12
2019-03-16T20:10:03.300Z,9.88
2019-03-16T20:12:43.774Z,9.61
2019-03-16T20:15:33.352Z,9.36
2019-03-16T20:18:04.281Z,9.34
2019-03-16T20:20:36.393Z,9.24
2019-03-16T20:23:07.894Z,9.26
2019-03-16T20:25:38.619Z,9.36
2019-03-16T20:28:28.538Z,9.49
2019-03-16T20:30:59.226Z,9.59
2019-03-16T20:33:30.078Z,9.49
2019-03-16T20:36:01.695Z,9.58
2019-03-16T20:38:32.727Z,9.90
2019-03-16T20:41:03.853Z,10.24
2019-03-16T20:43:54.633Z,10.55
2019-03-16T20:46:25.648Z,10.57
2019-03-16T20:48:57.887Z,10.54
2019-03-16T20:51:31.438Z,10.58
2019-03-16T20:54:21.142Z,10.83
2019-03-16T20:56:51.914Z,10.76
2019-03-16T20:59:22.649Z,10.81
2019-03-16T21:01:53.647Z,11.05
2019-03-16T21:04:43.523Z,10.99
2019-03-16T21:07:33.171Z,10.84
2019-03-16T21:10:22.771Z,10.75
2019-03-16T21:13:06.102Z,10.41
2019-03-16T21:15:45.407Z,10.75
2019-03-16T21:18:16.251Z,10.72
2019-03-16T21:20:46.999Z,10.75
2019-03-16T21:23:19.768Z,10.77
2019-03-16T21:26:02.074Z,10.70
2019-03-16T21:28:43.732Z,10.78
2019-03-16T21:31:26.272Z,11.01
2019-03-16T21:33:58.770Z,11.22
2019-03-16T21:36:40.935Z,11.14
2019-03-16T21:39:02.054Z,10.90
2019-03-16T21:41:33.409Z,10.64
2019-03-16T21:44:23.309Z,10.96
2019-03-16T21:46:53.998Z,11.05
2019-03-16T21:49:43.794Z,11.11
2019-03-16T21:52:15.412Z,11.02
2019-03-16T21:55:09.358Z,11.02
2019-03-16T21:57:59.337Z,11.06
2019-03-16T22:00:49.575Z,11.35
2019-03-16T22:03:41.838Z,11.43
2019-03-16T22:06:31.381Z,11.47
2019-03-16T22:09:02.776Z,11.70
2019-03-16T22:11:52.586Z,11.54
2019-03-16T22:14:43.759Z,11.55
2019-03-16T22:17:33.851Z,11.49
2019-03-16T22:20:15.520Z,11.15
2019-03-16T22:22:56.982Z,11.17
2019-03-16T22:25:38.732Z,11.30
2019-03-16T22:31:03.782Z,11.24
2019-03-16T22:33:35.282Z,11.08
2019-03-16T22:36:25.491Z,10.86
2019-03-16T22:38:56.169Z,10.65
2019-03-16T22:41:45.974Z,10.40
2019-03-16T22:44:54.913Z,10.20
2019-03-16T22:47:46.451Z,9.91
2019-03-16T22:50:36.304Z,9.59
2019-03-16T22:53:17.085Z,9.43
2019-03-16T22:56:08.439Z,9.27
2019-03-16T22:58:58.217Z,9.36
2019-03-16T23:01:29.163Z,9.22
2019-03-16T23:04:06.860Z,9.09
2019-03-16T23:06:34.850Z,8.97
2019-03-16T23:09:24.562Z,8.84
2019-03-16T23:11:55.293Z,8.86
2019-03-16T23:14:45.026Z,8.75
2019-03-16T23:17:15.847Z,8.81
2019-03-16T23:20:05.846Z,8.72
2019-03-16T23:22:56.635Z,8.76
2019-03-16T23:25:51.202Z,8.84
2019-03-16T23:28:22.451Z,8.67
2019-03-16T23:30:53.872Z,8.71
2019-03-16T23:33:24.896Z,8.89
2019-03-16T23:35:56.054Z,8.78
2019-03-16T23:38:45.975Z,8.91
2019-03-16T23:41:35.635Z,8.86
2019-03-16T23:44:25.485Z,8.82
2019-03-16T23:47:15.219Z,8.93
2019-03-16T23:50:05.612Z,8.94
2019-03-16T23:52:40.863Z,9.00
2019-03-16T23:55:30.817Z,8.76
2019-03-16T23:58:20.634Z,8.68
